createdAt,value
2022-11-18T00:04:28.574Z,94.98
2022-11-18T00:09:31.217Z,93.90
2022-11-18T00:14:33.838Z,94.97
2022-11-18T00:19:38.527Z,94.12
2022-11-18T00:24:41.087Z,93.59
2022-11-18T00:29:43.748Z,93.23
2022-11-18T00:34:46.309Z,93.51
2022-11-18T00:39:48.994Z,93.76
2022-11-18T00:44:51.535Z,93.84
2022-11-18T00:49:54.140Z,94.35
2022-11-18T00:54:56.785Z,93.46
2022-11-18T00:59:59.388Z,92.57
2022-11-18T01:05:02.021Z,92.52
2022-11-18T01:10:06.492Z,91.77
2022-11-18T01:15:09.614Z,91.28
2022-11-18T01:20:12.506Z,91.64
2022-11-18T01:25:15.256Z,89.98
2022-11-18T01:30:17.952Z,89.72
2022-11-18T01:35:20.999Z,89.46
2022-11-18T01:40:23.620Z,89.81
2022-11-18T01:45:37.909Z,90.18
2022-11-18T01:50:47.735Z,90.97
2022-11-18T01:55:54.420Z,89.83
2022-11-18T02:00:57.374Z,90.08
2022-11-18T02:06:01.971Z,89.44
2022-11-18T02:11:05.202Z,90.07
2022-11-18T02:16:25.443Z,89.65
2022-11-18T02:21:56.089Z,89.06
2022-11-18T02:27:37.586Z,89.72
2022-11-18T02:32:55.460Z,89.92
2022-11-18T02:38:03.706Z,90.12
2022-11-18T02:43:16.235Z,89.90
2022-11-18T02:48:22.965Z,89.75
2022-11-18T02:53:28.744Z,89.90
2022-11-18T02:58:31.373Z,89.75
2022-11-18T03:03:36.091Z,89.46
2022-11-18T03:09:10.838Z,89.55
2022-11-18T03:14:22.206Z,89.84
2022-11-18T03:19:43.079Z,89.91
2022-11-18T03:24:57.114Z,91.42
2022-11-18T03:30:04.752Z,91.03
2022-11-18T03:35:13.445Z,90.75
2022-11-18T03:40:22.181Z,89.95
2022-11-18T03:45:39.521Z,89.70
2022-11-18T03:50:51.504Z,90.11
2022-11-18T03:56:02.550Z,89.88
2022-11-18T04:01:11.761Z,89.55
2022-11-18T04:06:35.481Z,89.47
2022-11-18T04:12:04.484Z,90.42
2022-11-18T04:17:12.759Z,89.25
2022-11-18T04:22:15.847Z,90.50
2022-11-18T04:27:18.573Z,90.29
2022-11-18T04:32:21.137Z,89.88
2022-11-18T04:37:24.614Z,90.70
2022-11-18T04:42:27.351Z,90.09
2022-11-18T04:47:29.913Z,89.61
2022-11-18T04:52:32.466Z,89.41
2022-11-18T04:57:35.009Z,88.91
2022-11-18T05:02:37.596Z,88.87
2022-11-18T05:07:40.269Z,88.82
2022-11-18T05:12:50.281Z,88.18
2022-11-18T05:17:52.959Z,88.66
2022-11-18T05:22:56.140Z,88.54
2022-11-18T05:27:58.783Z,87.65
2022-11-18T05:33:01.320Z,88.17
2022-11-18T05:38:04.857Z,87.36
2022-11-18T05:43:11.777Z,88.07
2022-11-18T05:48:14.509Z,86.81
2022-11-18T05:53:19.614Z,87.71
2022-11-18T05:58:22.198Z,87.77
2022-11-18T06:03:31.023Z,86.96
2022-11-18T06:08:39.028Z,86.75
2022-11-18T06:13:50.579Z,87.21
2022-11-18T06:18:53.387Z,86.59
2022-11-18T06:23:56.886Z,87.33
2022-11-18T06:28:59.868Z,86.70
2022-11-18T06:34:02.393Z,86.17
2022-11-18T06:39:05.723Z,86.10
2022-11-18T06:44:08.433Z,86.01
2022-11-18T06:49:11.146Z,86.91
2022-11-18T06:54:13.749Z,87.06
2022-11-18T06:59:22.275Z,86.07
2022-11-18T07:04:24.853Z,86.19
2022-11-18T07:09:27.505Z,85.70
2022-11-18T07:14:30.341Z,86.18
2022-11-18T07:19:35.813Z,86.22
2022-11-18T07:24:39.666Z,86.23
2022-11-18T07:29:42.352Z,85.07
2022-11-18T07:34:45.934Z,85.55
2022-11-18T07:39:48.544Z,85.26
2022-11-18T07:44:51.171Z,84.92
2022-11-18T07:49:53.718Z,84.87
2022-11-18T07:54:56.242Z,83.94
2022-11-18T07:59:58.859Z,84.28
2022-11-18T08:05:01.841Z,84.93
2022-11-18T08:10:05.807Z,85.82
2022-11-18T08:15:08.938Z,84.91
2022-11-18T08:20:11.923Z,85.85
2022-11-18T08:25:14.639Z,84.71
2022-11-18T08:30:18.350Z,85.45
2022-11-18T08:35:21.133Z,84.44
2022-11-18T08:40:24.116Z,84.01
2022-11-18T08:45:26.825Z,83.70
2022-11-18T08:50:29.444Z,84.54
2022-11-18T08:55:31.947Z,83.94
2022-11-18T09:00:34.575Z,85.53
2022-11-18T09:05:37.097Z,86.03
2022-11-18T09:10:39.945Z,84.83
2022-11-18T09:15:42.534Z,84.14
2022-11-18T09:20:55.068Z,83.65
2022-11-18T09:25:59.971Z,83.02
2022-11-18T09:31:08.128Z,82.09
2022-11-18T09:36:15.197Z,83.00
2022-11-18T09:41:30.512Z,83.18
2022-11-18T09:46:48.260Z,84.35
2022-11-18T09:51:52.835Z,83.80
2022-11-18T09:56:56.216Z,83.38
2022-11-18T10:02:11.577Z,83.30
2022-11-18T10:07:26.538Z,83.19
2022-11-18T10:12:33.007Z,82.83
2022-11-18T10:17:54.866Z,82.12
2022-11-18T10:22:57.180Z,82.83
2022-11-18T10:28:15.899Z,82.22
2022-11-18T10:33:21.474Z,82.84
2022-11-18T10:38:24.188Z,82.20
2022-11-18T10:44:04.070Z,82.10
2022-11-18T10:49:09.380Z,82.36
2022-11-18T10:54:22.449Z,82.50
2022-11-18T10:59:33.071Z,82.50
2022-11-18T11:04:37.808Z,82.42
2022-11-18T11:09:40.619Z,81.95
2022-11-18T11:14:54.039Z,82.55
2022-11-18T11:20:05.928Z,82.10
2022-11-18T11:25:16.207Z,81.36
2022-11-18T11:30:21.772Z,81.41
2022-11-18T11:35:24.355Z,81.93
2022-11-18T11:40:41.088Z,81.90
2022-11-18T11:45:55.419Z,82.00
2022-11-18T11:51:16.173Z,81.85
2022-11-18T11:56:33.731Z,82.64
2022-11-18T12:01:55.037Z,83.19
2022-11-18T12:06:59.949Z,82.74
2022-11-18T12:12:29.448Z,82.02
2022-11-18T12:17:48.543Z,82.11
2022-11-18T12:23:24.804Z,82.36
2022-11-18T12:28:36.085Z,82.31
2022-11-18T12:33:51.995Z,82.45
2022-11-18T12:38:55.431Z,81.99
2022-11-18T12:44:01.259Z,82.40
2022-11-18T12:49:22.378Z,82.12
2022-11-18T12:54:27.792Z,82.13
2022-11-18T12:59:37.639Z,81.45
2022-11-18T13:04:45.762Z,82.33
2022-11-18T13:09:49.335Z,83.16
2022-11-18T13:15:10.627Z,83.19
2022-11-18T13:20:36.097Z,82.94
2022-11-18T13:25:39.796Z,83.69
2022-11-18T13:31:17.316Z,83.07
2022-11-18T13:36:21.905Z,82.98
2022-11-18T13:41:32.745Z,83.62
2022-11-18T13:46:35.539Z,83.84
2022-11-18T13:51:38.940Z,83.38
2022-11-18T13:56:42.037Z,83.36
2022-11-18T14:01:46.254Z,82.82
2022-11-18T14:06:49.216Z,83.08
2022-11-18T14:12:07.640Z,83.42
2022-11-18T14:17:25.683Z,83.41
2022-11-18T14:22:33.650Z,83.87
2022-11-18T14:27:40.767Z,84.37
2022-11-18T14:32:43.465Z,84.11
2022-11-18T14:37:46.639Z,84.29
2022-11-18T14:42:49.312Z,85.04
2022-11-18T14:47:52.906Z,85.15
2022-11-18T14:52:56.230Z,85.66
2022-11-18T14:57:59.074Z,86.15
2022-11-18T15:03:01.611Z,85.09
2022-11-18T15:08:04.940Z,85.03
2022-11-18T15:13:07.535Z,84.51
2022-11-18T15:18:10.068Z,84.06
2022-11-18T15:23:12.643Z,84.16
2022-11-18T15:28:15.191Z,83.87
2022-11-18T15:33:17.906Z,83.79
2022-11-18T15:38:21.002Z,83.71
2022-11-18T15:43:23.546Z,84.17
2022-11-18T15:48:26.152Z,83.64
2022-11-18T15:53:28.715Z,83.54
2022-11-18T15:58:35.681Z,83.69
2022-11-18T16:03:38.783Z,83.30
2022-11-18T16:08:41.428Z,83.58
2022-11-18T16:13:44.288Z,83.15
2022-11-18T16:18:47.075Z,83.66
2022-11-18T16:23:49.823Z,82.97
2022-11-18T16:28:52.703Z,83.29
2022-11-18T16:33:55.350Z,83.36
2022-11-18T16:38:58.205Z,83.76
2022-11-18T16:44:05.409Z,83.18
2022-11-18T16:49:11.949Z,83.42
2022-11-18T16:54:20.233Z,83.94
2022-11-18T16:59:24.732Z,83.79
2022-11-18T17:04:29.455Z,84.40
2022-11-18T17:09:32.375Z,84.27
2022-11-18T17:14:38.127Z,84.17
2022-11-18T17:19:40.832Z,83.51
2022-11-18T17:24:43.347Z,83.99
2022-11-18T17:29:45.955Z,84.15
2022-11-18T17:34:48.633Z,84.72
2022-11-18T17:39:51.138Z,84.47
2022-11-18T17:44:53.755Z,84.63
2022-11-18T17:49:56.384Z,84.39
2022-11-18T17:54:59.002Z,84.96
2022-11-18T18:00:01.673Z,84.29
2022-11-18T18:05:10.134Z,84.51
2022-11-18T18:10:13.544Z,85.00
2022-11-18T18:15:16.304Z,85.06
2022-11-18T18:20:18.850Z,84.38
2022-11-18T18:25:21.525Z,84.56
2022-11-18T18:30:24.138Z,84.19
2022-11-18T18:35:26.784Z,84.74
2022-11-18T18:40:29.367Z,85.36
2022-11-18T18:45:50.486Z,85.62
2022-11-18T18:50:53.098Z,85.59
2022-11-18T18:55:56.712Z,85.70
2022-11-18T19:01:14.778Z,85.80
2022-11-18T19:12:01.891Z,85.92
2022-11-18T19:17:09.994Z,85.56
2022-11-18T19:22:15.204Z,85.55
2022-11-18T19:27:19.195Z,85.93
2022-11-18T19:32:21.853Z,85.92
2022-11-18T19:37:24.592Z,86.17
2022-11-18T19:42:28.042Z,85.59
2022-11-18T19:47:31.179Z,86.19
2022-11-18T19:52:33.938Z,86.17
2022-11-18T19:57:36.499Z,86.14
2022-11-18T20:02:39.206Z,86.04
2022-11-18T20:07:41.771Z,86.21
2022-11-18T20:12:44.296Z,86.31
2022-11-18T20:17:46.820Z,86.02
2022-11-18T20:22:49.496Z,85.69
2022-11-18T20:27:52.259Z,86.08
2022-11-18T20:32:54.946Z,85.81
2022-11-18T20:37:57.439Z,85.60
2022-11-18T20:43:12.007Z,86.20
2022-11-18T20:48:14.619Z,86.07
2022-11-18T20:53:17.655Z,86.11
2022-11-18T20:58:20.294Z,85.59
2022-11-18T21:03:22.861Z,85.62
2022-11-18T21:08:25.469Z,85.62
2022-11-18T21:13:46.560Z,85.31
2022-11-18T21:18:49.184Z,85.53
2022-11-18T21:24:00.200Z,85.22
2022-11-18T21:29:05.479Z,85.50
2022-11-18T21:34:08.625Z,84.92
2022-11-18T21:39:12.046Z,85.27
2022-11-18T21:44:14.890Z,84.90
2022-11-18T21:49:17.766Z,84.91
2022-11-18T21:54:20.767Z,84.96
2022-11-18T21:59:23.771Z,84.33
2022-11-18T22:04:44.623Z,84.52
2022-11-18T22:09:47.242Z,84.59
2022-11-18T22:14:49.877Z,84.77
2022-11-18T22:19:52.352Z,84.82
2022-11-18T22:24:54.896Z,84.83
2022-11-18T22:29:57.496Z,85.09
2022-11-18T22:35:00.103Z,85.08
2022-11-18T22:40:02.728Z,85.03
2022-11-18T22:45:07.049Z,84.18
2022-11-18T22:50:10.766Z,84.07
2022-11-18T22:55:13.339Z,84.33
2022-11-18T23:00:16.975Z,83.99
2022-11-18T23:05:19.543Z,84.62
2022-11-18T23:10:22.072Z,83.99
2022-11-18T23:15:24.625Z,84.36
2022-11-18T23:20:27.172Z,84.52
2022-11-18T23:25:29.924Z,84.29
2022-11-18T23:30:32.451Z,84.53
2022-11-18T23:35:35.537Z,84.58
2022-11-18T23:40:38.138Z,84.29
2022-11-18T23:45:42.008Z,83.65
2022-11-18T23:50:59.146Z,84.00
2022-11-18T23:56:04.610Z,83.84
